Buhler, Kansas
Current Conditions -  °F | °C
As of 6:27 AM on Friday 24 Oct 2014 (Local Time) from KHUT Reporting Station
Haze Haze  
Wind Chill: 56°   Ceiling: 400
Heat Index: 56°   Visibility: 2.5mi
Dew Point: 54°   Wind: 6mph
Humidity: 93%   Direction: 180°S
Pressure: 30.05"   Gusts: NA
Location:  38.13°N, 97.77°W
Report Text: KHUT 241127Z AUTO 18005KT 2 1/2SM R13/5000VP6000FT BR BKN004 13/12 A3005 RMK AO2 T01330122
Loading
Personal Weather Stations






























Interactive Weather Map
Tropical Storm Tracking
New forecast layout! Learn more

10-Day Weather Forecast

Advertisements
Track Severe Weather on mobile